• Join FlightAware (Why Join?)
  • Login
  • US Flag 
06:17PM EDT


 

Airport Tracker/Info


-or-


 

Live Flight TrackerFlight Track Log ✈ SWA1668 ✈ 25-Apr-2013 ✈ KAMA - KDAL

Flight Track Log - Related Links

Times and Time Zones

All times are in EDT time to prevent confusion due to time zone crossing. See the SWA1668 flight status page for this flight to view local times or setup timezone preferences in your user account.

Time Position Orientation Groundspeed Altitude Reporting Facility
EDT Latitude Longitude Course Direction KTS MPH feet Rate Location/Type
03:23PM 35.1811 -101.4439 98° East 279 321 10,800  Level Albuquerque Center
03:24PM 35.1572 -101.3292 104° East 338 389 13,900 3,240 Climbing Albuquerque Center
03:25PM 35.1247 -101.1783 105° East 377 434 17,600 3,000 Climbing Albuquerque Center
03:26PM 35.0922 -101.0469 107° East 399 459 20,200 2,460 Climbing Albuquerque Center
03:27PM 35.1269 -101.2409 107° East  Level FlightAware Approximate
03:28PM 35.0984 -101.1223 100° East  Level FlightAware Approximate
03:28PM 35.0347 -100.9217 119° Southeast 418 481 22,700  Level Albuquerque Center
03:29PM 34.9783 -100.7903 118° Southeast 431 496 24,800 1,980 Climbing Albuquerque Center
03:30PM 34.9175 -100.6539 119° Southeast 449 517 26,800 1,860 Climbing Albuquerque Center
03:31PM 34.8558 -100.5133 118° Southeast 466 536 28,700 1,800 Climbing Albuquerque Center
03:32PM 34.7894 -100.3628 118° Southeast 474 545 30,600 1,620 Climbing Albuquerque Center
03:33PM 34.7242 -100.2175 119° Southeast 485 558 32,100 1,740 Climbing Albuquerque Center
03:34PM 34.6461 -100.0406 118° Southeast 494 568 34,200 1,620 Climbing Albuquerque Center
03:35PM 34.5794 -99.8925 119° Southeast 497 572 35,500 1,140 Climbing Albuquerque Center
03:35PM 34.5708 -99.8622 109° East 498 573 35,700 1,200 Climbing Fort Worth Center
03:36PM 34.4986 -99.7142 121° Southeast 498 573 37,000 600 Climbing Fort Worth Center
03:37PM 34.4322 -99.5689 119° Southeast 503 579 37,000  Level Fort Worth Center
03:38PM 34.3658 -99.4186 118° Southeast 503 579 37,000  Level Fort Worth Center
03:39PM 34.2933 -99.2586 119° Southeast 493 567 37,000 -420 Level Fort Worth Center
03:40PM 34.2264 -99.1114 119° Southeast 493 567 36,200 -1,200 Descending Fort Worth Center
03:41PM 34.1633 -98.9847 121° Southeast 493 567 34,600 -1,980 Descending Fort Worth Center
03:42PM 34.0964 -98.8406 119° Southeast 493 567 32,300 -2,340 Descending Fort Worth Center
03:43PM 34.0250 -98.6842 119° Southeast 488 562 30,000 -2,160 Descending Fort Worth Center
03:44PM 33.9636 -98.5456 118° Southeast 474 545 28,000 -1,980 Descending Fort Worth Center
03:46PM 33.8867 -98.3936 123° Southeast  Level FlightAware Approximate
03:46PM 33.8425 -98.2911 123° Southeast 446 513 24,100  Level Fort Worth Center
03:47PM 33.7828 -98.1656 120° Southeast 434 499 22,200 -1,920 Descending Fort Worth Center
03:48PM 33.7272 -98.0428 119° Southeast 419 482 20,300 -1,800 Descending Fort Worth Center
03:49PM 33.6714 -97.9300 121° Southeast 406 467 18,600 -1,500 Descending Fort Worth Center
03:50PM 33.6239 -97.8275 119° Southeast 406 467 17,300 -1,860 Descending Fort Worth Center
03:51PM 33.5636 -97.7075 121° Southeast 388 447 14,900 -2,100 Descending Fort Worth Center
03:52PM 33.5136 -97.6003 119° Southeast 378 435 13,100 -1,740 Descending Fort Worth Center
03:53PM 33.4636 -97.5006 121° Southeast 368 423 11,500 -1,500 Descending Fort Worth Center
03:54PM 33.4094 -97.4258 131° Southeast 346 398 10,200 -1,500 Descending Fort Worth Center
03:55PM 33.3594 -97.3389 125° Southeast 305 351 8,600 -1,500 Descending Fort Worth Center
03:56PM 33.3719 -97.2492 81° East 274 315 7,200 -1,380 Descending Fort Worth Center
03:57PM 33.3861 -97.1447 81° East 286 329 5,900 -1,140 Descending Fort Worth Center
03:58PM 33.3964 -97.0650 81° East 281 323 5,000 -960 Descending Fort Worth Center
03:59PM 33.3794 -96.9781 103° East 249 287 4,000 -540 Descending Fort Worth Center
04:00PM 33.3417 -96.9186 127° Southeast 240 276 4,000  Level Fort Worth Center
04:01PM 33.2956 -96.8542 131° Southeast 249 287 4,000  Level Fort Worth Center
04:02PM 33.2308 -96.8497 177° South 241 277 4,000  Level Fort Worth Center
04:03PM 33.1536 -96.8428 176° South 252 290 4,000  Level Fort Worth Center
04:04PM 33.0889 -96.8383 177° South 257 296 4,000  Level Fort Worth Center
04:04PM 33.0667 -96.8500 204° Southwest 261 300 4,000 -540 Level Dallas / Fort Worth TRACON
04:06PM 32.9639 -96.8886 197° South 236 272 3,000 -780 Descending Fort Worth Center
04:07PM 32.9000 -96.9000 189° South 169 194 1,900 -1,020 Descending Dallas / Fort Worth TRACON
04:08PM 32.8833 -96.8833 140° Southeast 140 161 1,100 -900 Descending Dallas / Fort Worth TRACON
04:10PM 32.8471 -96.8518 140° Southeast  Level Estimated
04:17PM 32.8471 -96.8518 140° Southeast  Level Estimated